sensor_id;sensor_type;location;lat;lon;timestamp;P1;durP1;ratioP1;P2;durP2;ratioP2
48596;SDS011;34382;43.160;24.148;2023-04-25T00:01:05;5.63;;;2.50;;
48596;SDS011;34382;43.160;24.148;2023-04-25T00:02:37;6.75;;;3.13;;
48596;SDS011;34382;43.160;24.148;2023-04-25T00:04:09;6.78;;;2.70;;
48596;SDS011;34382;43.160;24.148;2023-04-25T00:05:44;6.95;;;3.05;;
48596;SDS011;34382;43.160;24.148;2023-04-25T00:07:17;7.55;;;2.70;;
48596;SDS011;34382;43.160;24.148;2023-04-25T00:08:51;5.88;;;2.50;;
48596;SDS011;34382;43.160;24.148;2023-04-25T00:10:24;6.90;;;2.72;;
48596;SDS011;34382;43.160;24.148;2023-04-25T00:11:56;6.03;;;2.58;;
48596;SDS011;34382;43.160;24.148;2023-04-25T00:13:28;6.70;;;2.63;;
48596;SDS011;34382;43.160;24.148;2023-04-25T00:15:01;6.03;;;2.95;;
48596;SDS011;34382;43.160;24.148;2023-04-25T00:16:33;6.90;;;2.78;;
48596;SDS011;34382;43.160;24.148;2023-04-25T00:18:07;5.90;;;2.65;;
48596;SDS011;34382;43.160;24.148;2023-04-25T00:19:39;7.57;;;2.83;;
48596;SDS011;34382;43.160;24.148;2023-04-25T00:21:11;6.32;;;2.70;;
48596;SDS011;34382;43.160;24.148;2023-04-25T00:22:43;7.95;;;2.90;;
48596;SDS011;34382;43.160;24.148;2023-04-25T00:24:16;6.47;;;2.53;;
48596;SDS011;34382;43.160;24.148;2023-04-25T00:25:48;6.20;;;2.85;;
48596;SDS011;34382;43.160;24.148;2023-04-25T00:27:21;5.40;;;2.45;;
48596;SDS011;34382;43.160;24.148;2023-04-25T00:28:53;6.30;;;2.70;;
48596;SDS011;34382;43.160;24.148;2023-04-25T00:30:25;7.60;;;2.63;;
48596;SDS011;34382;43.160;24.148;2023-04-25T00:31:57;9.63;;;2.92;;
48596;SDS011;34382;43.160;24.148;2023-04-25T00:33:29;5.95;;;2.70;;
48596;SDS011;34382;43.160;24.148;2023-04-25T00:35:01;10.05;;;3.13;;
48596;SDS011;34382;43.160;24.148;2023-04-25T00:36:34;7.13;;;2.67;;
48596;SDS011;34382;43.160;24.148;2023-04-25T00:38:06;6.07;;;2.42;;
48596;SDS011;34382;43.160;24.148;2023-04-25T00:39:38;8.10;;;2.67;;
48596;SDS011;34382;43.160;24.148;2023-04-25T00:41:10;7.95;;;2.78;;
48596;SDS011;34382;43.160;24.148;2023-04-25T00:42:43;5.93;;;2.45;;
48596;SDS011;34382;43.160;24.148;2023-04-25T00:44:16;6.25;;;2.72;;
48596;SDS011;34382;43.160;24.148;2023-04-25T00:45:48;8.00;;;3.00;;
48596;SDS011;34382;43.160;24.148;2023-04-25T00:47:22;12.32;;;2.72;;
48596;SDS011;34382;43.160;24.148;2023-04-25T00:48:55;6.95;;;2.60;;
48596;SDS011;34382;43.160;24.148;2023-04-25T00:50:27;6.47;;;2.63;;
48596;SDS011;34382;43.160;24.148;2023-04-25T00:53:34;6.25;;;2.85;;
48596;SDS011;34382;43.160;24.148;2023-04-25T00:55:06;6.13;;;2.45;;
48596;SDS011;34382;43.160;24.148;2023-04-25T00:56:39;6.97;;;3.20;;
48596;SDS011;34382;43.160;24.148;2023-04-25T00:58:11;7.32;;;2.70;;
48596;SDS011;34382;43.160;24.148;2023-04-25T00:59:44;8.40;;;2.58;;
48596;SDS011;34382;43.160;24.148;2023-04-25T01:01:17;6.30;;;2.63;;
48596;SDS011;34382;43.160;24.148;2023-04-25T01:02:49;7.47;;;2.60;;
48596;SDS011;34382;43.160;24.148;2023-04-25T01:04:22;10.35;;;3.17;;
48596;SDS011;34382;43.160;24.148;2023-04-25T01:05:54;6.47;;;2.50;;
48596;SDS011;34382;43.160;24.148;2023-04-25T01:07:27;8.32;;;2.60;;
48596;SDS011;34382;43.160;24.148;2023-04-25T01:08:59;6.68;;;2.60;;
48596;SDS011;34382;43.160;24.148;2023-04-25T01:10:31;8.85;;;2.75;;
48596;SDS011;34382;43.160;24.148;2023-04-25T01:12:03;6.53;;;2.75;;
48596;SDS011;34382;43.160;24.148;2023-04-25T01:13:35;8.57;;;3.10;;
48596;SDS011;34382;43.160;24.148;2023-04-25T01:15:08;7.93;;;2.95;;
48596;SDS011;34382;43.160;24.148;2023-04-25T01:16:40;9.63;;;3.05;;
48596;SDS011;34382;43.160;24.148;2023-04-25T01:18:13;8.03;;;3.20;;
48596;SDS011;34382;43.160;24.148;2023-04-25T01:19:45;6.03;;;2.80;;
48596;SDS011;34382;43.160;24.148;2023-04-25T01:21:20;6.18;;;2.88;;
48596;SDS011;34382;43.160;24.148;2023-04-25T01:22:52;5.93;;;2.70;;
48596;SDS011;34382;43.160;24.148;2023-04-25T01:24:25;6.15;;;2.90;;
48596;SDS011;34382;43.160;24.148;2023-04-25T01:25:57;8.20;;;3.10;;
48596;SDS011;34382;43.160;24.148;2023-04-25T01:27:29;6.47;;;2.88;;
48596;SDS011;34382;43.160;24.148;2023-04-25T01:29:01;8.07;;;3.20;;
48596;SDS011;34382;43.160;24.148;2023-04-25T01:30:35;4.78;;;2.10;;
48596;SDS011;34382;43.160;24.148;2023-04-25T01:32:07;6.13;;;2.60;;
48596;SDS011;34382;43.160;24.148;2023-04-25T01:33:40;6.03;;;2.50;;
48596;SDS011;34382;43.160;24.148;2023-04-25T01:35:12;4.95;;;1.90;;
48596;SDS011;34382;43.160;24.148;2023-04-25T01:36:44;5.70;;;2.55;;
48596;SDS011;34382;43.160;24.148;2023-04-25T01:38:17;5.75;;;2.40;;
48596;SDS011;34382;43.160;24.148;2023-04-25T01:39:51;5.43;;;2.13;;
48596;SDS011;34382;43.160;24.148;2023-04-25T01:41:24;5.05;;;2.42;;
48596;SDS011;34382;43.160;24.148;2023-04-25T01:42:56;4.68;;;2.15;;
48596;SDS011;34382;43.160;24.148;2023-04-25T01:44:28;5.25;;;2.30;;
48596;SDS011;34382;43.160;24.148;2023-04-25T01:46:01;5.35;;;2.10;;
48596;SDS011;34382;43.160;24.148;2023-04-25T01:47:33;5.47;;;2.15;;
48596;SDS011;34382;43.160;24.148;2023-04-25T01:49:06;5.45;;;2.20;;
48596;SDS011;34382;43.160;24.148;2023-04-25T01:50:39;5.68;;;2.10;;
48596;SDS011;34382;43.160;24.148;2023-04-25T01:52:12;3.72;;;2.20;;
48596;SDS011;34382;43.160;24.148;2023-04-25T01:53:44;5.65;;;2.10;;
48596;SDS011;34382;43.160;24.148;2023-04-25T01:55:16;4.78;;;2.10;;
48596;SDS011;34382;43.160;24.148;2023-04-25T01:56:51;6.10;;;2.30;;
48596;SDS011;34382;43.160;24.148;2023-04-25T01:58:23;6.35;;;2.28;;
48596;SDS011;34382;43.160;24.148;2023-04-25T01:59:59;7.20;;;2.42;;
48596;SDS011;34382;43.160;24.148;2023-04-25T02:01:32;4.38;;;2.30;;
48596;SDS011;34382;43.160;24.148;2023-04-25T02:03:05;7.05;;;2.65;;
48596;SDS011;34382;43.160;24.148;2023-04-25T02:04:37;6.43;;;2.80;;
48596;SDS011;34382;43.160;24.148;2023-04-25T02:06:10;7.22;;;2.58;;
48596;SDS011;34382;43.160;24.148;2023-04-25T02:07:42;6.75;;;2.45;;
48596;SDS011;34382;43.160;24.148;2023-04-25T02:09:14;7.47;;;2.75;;
48596;SDS011;34382;43.160;24.148;2023-04-25T02:10:46;5.97;;;2.53;;
48596;SDS011;34382;43.160;24.148;2023-04-25T02:12:18;5.18;;;2.40;;
48596;SDS011;34382;43.160;24.148;2023-04-25T02:13:51;6.43;;;2.65;;
48596;SDS011;34382;43.160;24.148;2023-04-25T02:15:23;5.95;;;2.47;;
48596;SDS011;34382;43.160;24.148;2023-04-25T02:16:55;8.38;;;2.70;;
48596;SDS011;34382;43.160;24.148;2023-04-25T02:18:29;6.35;;;2.55;;
48596;SDS011;34382;43.160;24.148;2023-04-25T02:20:01;6.07;;;2.47;;
48596;SDS011;34382;43.160;24.148;2023-04-25T02:21:33;5.72;;;2.35;;
48596;SDS011;34382;43.160;24.148;2023-04-25T02:23:07;5.72;;;2.42;;
48596;SDS011;34382;43.160;24.148;2023-04-25T02:24:39;5.50;;;2.58;;
48596;SDS011;34382;43.160;24.148;2023-04-25T02:26:11;6.75;;;2.70;;
48596;SDS011;34382;43.160;24.148;2023-04-25T02:27:45;6.13;;;2.67;;
48596;SDS011;34382;43.160;24.148;2023-04-25T02:29:17;10.27;;;2.80;;
48596;SDS011;34382;43.160;24.148;2023-04-25T02:30:49;7.40;;;2.70;;
48596;SDS011;34382;43.160;24.148;2023-04-25T02:32:21;6.53;;;2.70;;
48596;SDS011;34382;43.160;24.148;2023-04-25T02:33:54;6.95;;;2.72;;
48596;SDS011;34382;43.160;24.148;2023-04-25T02:35:26;6.35;;;2.63;;
48596;SDS011;34382;43.160;24.148;2023-04-25T02:37:00;7.43;;;3.17;;
48596;SDS011;34382;43.160;24.148;2023-04-25T02:38:32;7.40;;;3.00;;
48596;SDS011;34382;43.160;24.148;2023-04-25T02:40:05;7.50;;;3.10;;
48596;SDS011;34382;43.160;24.148;2023-04-25T02:41:38;7.47;;;3.20;;
48596;SDS011;34382;43.160;24.148;2023-04-25T02:43:10;7.07;;;2.85;;
48596;SDS011;34382;43.160;24.148;2023-04-25T02:44:42;7.57;;;3.05;;
48596;SDS011;34382;43.160;24.148;2023-04-25T02:46:14;5.05;;;2.28;;
48596;SDS011;34382;43.160;24.148;2023-04-25T02:47:59;7.30;;;2.80;;
48596;SDS011;34382;43.160;24.148;2023-04-25T02:49:31;7.68;;;2.90;;
48596;SDS011;34382;43.160;24.148;2023-04-25T02:51:03;7.80;;;3.40;;
48596;SDS011;34382;43.160;24.148;2023-04-25T02:52:35;6.65;;;2.90;;
48596;SDS011;34382;43.160;24.148;2023-04-25T02:54:07;6.63;;;2.80;;
48596;SDS011;34382;43.160;24.148;2023-04-25T02:55:39;8.05;;;3.15;;
48596;SDS011;34382;43.160;24.148;2023-04-25T02:57:11;7.97;;;3.67;;
48596;SDS011;34382;43.160;24.148;2023-04-25T02:58:43;7.20;;;2.90;;
48596;SDS011;34382;43.160;24.148;2023-04-25T03:00:16;6.93;;;3.03;;
48596;SDS011;34382;43.160;24.148;2023-04-25T03:01:48;5.55;;;2.70;;
48596;SDS011;34382;43.160;24.148;2023-04-25T03:03:21;7.93;;;3.13;;
48596;SDS011;34382;43.160;24.148;2023-04-25T03:04:53;9.82;;;3.40;;
48596;SDS011;34382;43.160;24.148;2023-04-25T03:06:25;7.95;;;3.70;;
48596;SDS011;34382;43.160;24.148;2023-04-25T03:07:58;8.27;;;3.80;;
48596;SDS011;34382;43.160;24.148;2023-04-25T03:09:30;7.57;;;3.40;;
48596;SDS011;34382;43.160;24.148;2023-04-25T03:11:02;8.35;;;3.00;;
48596;SDS011;34382;43.160;24.148;2023-04-25T03:12:34;7.97;;;3.13;;
48596;SDS011;34382;43.160;24.148;2023-04-25T03:14:07;9.40;;;3.25;;
48596;SDS011;34382;43.160;24.148;2023-04-25T03:15:39;7.60;;;3.17;;
48596;SDS011;34382;43.160;24.148;2023-04-25T03:17:11;9.77;;;3.03;;
48596;SDS011;34382;43.160;24.148;2023-04-25T03:18:43;7.45;;;3.05;;
48596;SDS011;34382;43.160;24.148;2023-04-25T03:20:15;8.52;;;4.60;;
48596;SDS011;34382;43.160;24.148;2023-04-25T03:21:47;8.65;;;4.43;;
48596;SDS011;34382;43.160;24.148;2023-04-25T03:23:19;8.30;;;3.95;;
48596;SDS011;34382;43.160;24.148;2023-04-25T03:24:52;9.80;;;3.08;;
48596;SDS011;34382;43.160;24.148;2023-04-25T03:26:24;6.03;;;2.75;;
48596;SDS011;34382;43.160;24.148;2023-04-25T03:27:56;6.40;;;2.70;;
48596;SDS011;34382;43.160;24.148;2023-04-25T03:29:28;8.18;;;3.28;;
48596;SDS011;34382;43.160;24.148;2023-04-25T03:31:00;7.55;;;2.92;;
48596;SDS011;34382;43.160;24.148;2023-04-25T03:32:33;6.45;;;2.80;;
48596;SDS011;34382;43.160;24.148;2023-04-25T03:34:06;7.95;;;3.50;;
48596;SDS011;34382;43.160;24.148;2023-04-25T03:35:38;9.35;;;3.55;;
48596;SDS011;34382;43.160;24.148;2023-04-25T03:37:10;7.70;;;3.22;;
48596;SDS011;34382;43.160;24.148;2023-04-25T03:38:42;7.55;;;3.25;;
48596;SDS011;34382;43.160;24.148;2023-04-25T03:40:14;6.75;;;2.83;;
48596;SDS011;34382;43.160;24.148;2023-04-25T03:41:46;8.52;;;3.25;;
48596;SDS011;34382;43.160;24.148;2023-04-25T03:43:19;7.78;;;3.40;;
48596;SDS011;34382;43.160;24.148;2023-04-25T03:44:51;6.25;;;2.80;;
48596;SDS011;34382;43.160;24.148;2023-04-25T03:46:23;7.50;;;3.28;;
48596;SDS011;34382;43.160;24.148;2023-04-25T03:47:56;5.88;;;2.90;;
48596;SDS011;34382;43.160;24.148;2023-04-25T03:49:28;10.20;;;3.25;;
48596;SDS011;34382;43.160;24.148;2023-04-25T03:51:00;12.45;;;4.90;;
48596;SDS011;34382;43.160;24.148;2023-04-25T03:52:32;9.27;;;4.20;;
48596;SDS011;34382;43.160;24.148;2023-04-25T03:54:05;9.60;;;3.90;;
48596;SDS011;34382;43.160;24.148;2023-04-25T03:55:37;10.77;;;3.70;;
48596;SDS011;34382;43.160;24.148;2023-04-25T03:57:10;9.55;;;3.13;;
48596;SDS011;34382;43.160;24.148;2023-04-25T03:58:43;8.70;;;2.78;;
48596;SDS011;34382;43.160;24.148;2023-04-25T04:00:15;5.57;;;2.38;;
48596;SDS011;34382;43.160;24.148;2023-04-25T04:01:48;6.43;;;2.70;;
48596;SDS011;34382;43.160;24.148;2023-04-25T04:03:21;6.70;;;2.83;;
48596;SDS011;34382;43.160;24.148;2023-04-25T04:04:53;5.72;;;2.53;;
48596;SDS011;34382;43.160;24.148;2023-04-25T04:06:28;6.47;;;2.60;;
48596;SDS011;34382;43.160;24.148;2023-04-25T04:08:00;7.22;;;3.05;;
48596;SDS011;34382;43.160;24.148;2023-04-25T04:09:32;6.80;;;2.38;;
48596;SDS011;34382;43.160;24.148;2023-04-25T04:11:04;7.00;;;3.20;;
48596;SDS011;34382;43.160;24.148;2023-04-25T04:12:36;6.93;;;3.60;;
48596;SDS011;34382;43.160;24.148;2023-04-25T04:14:09;7.05;;;3.00;;
48596;SDS011;34382;43.160;24.148;2023-04-25T04:15:42;6.82;;;2.83;;
48596;SDS011;34382;43.160;24.148;2023-04-25T04:17:14;9.88;;;3.00;;
48596;SDS011;34382;43.160;24.148;2023-04-25T04:18:46;7.03;;;3.15;;
48596;SDS011;34382;43.160;24.148;2023-04-25T04:20:18;9.77;;;3.13;;
48596;SDS011;34382;43.160;24.148;2023-04-25T04:21:51;9.55;;;3.72;;
48596;SDS011;34382;43.160;24.148;2023-04-25T04:23:23;7.22;;;3.05;;
48596;SDS011;34382;43.160;24.148;2023-04-25T04:24:56;6.65;;;2.95;;
48596;SDS011;34382;43.160;24.148;2023-04-25T04:26:28;7.43;;;2.80;;
48596;SDS011;34382;43.160;24.148;2023-04-25T04:28:00;11.35;;;3.38;;
48596;SDS011;34382;43.160;24.148;2023-04-25T04:29:33;8.05;;;2.92;;
48596;SDS011;34382;43.160;24.148;2023-04-25T04:31:05;5.97;;;2.80;;
48596;SDS011;34382;43.160;24.148;2023-04-25T04:32:37;9.05;;;2.90;;
48596;SDS011;34382;43.160;24.148;2023-04-25T04:34:09;6.00;;;2.55;;
48596;SDS011;34382;43.160;24.148;2023-04-25T04:35:42;7.55;;;3.13;;
48596;SDS011;34382;43.160;24.148;2023-04-25T04:37:14;8.93;;;3.35;;
48596;SDS011;34382;43.160;24.148;2023-04-25T04:38:47;7.10;;;2.90;;
48596;SDS011;34382;43.160;24.148;2023-04-25T04:40:21;11.85;;;2.92;;
48596;SDS011;34382;43.160;24.148;2023-04-25T04:41:54;16.30;;;3.95;;
48596;SDS011;34382;43.160;24.148;2023-04-25T04:43:26;10.65;;;3.72;;
48596;SDS011;34382;43.160;24.148;2023-04-25T04:44:58;7.68;;;3.10;;
48596;SDS011;34382;43.160;24.148;2023-04-25T04:46:30;8.43;;;2.92;;
48596;SDS011;34382;43.160;24.148;2023-04-25T04:48:09;7.30;;;3.08;;
48596;SDS011;34382;43.160;24.148;2023-04-25T04:49:43;7.70;;;3.30;;
48596;SDS011;34382;43.160;24.148;2023-04-25T04:51:16;7.57;;;3.65;;
48596;SDS011;34382;43.160;24.148;2023-04-25T04:52:48;7.30;;;3.50;;
48596;SDS011;34382;43.160;24.148;2023-04-25T04:54:20;7.55;;;3.33;;
48596;SDS011;34382;43.160;24.148;2023-04-25T04:55:52;7.90;;;3.75;;
48596;SDS011;34382;43.160;24.148;2023-04-25T04:57:24;9.07;;;3.90;;
48596;SDS011;34382;43.160;24.148;2023-04-25T04:58:57;7.72;;;3.60;;
48596;SDS011;34382;43.160;24.148;2023-04-25T05:00:30;8.50;;;3.15;;
48596;SDS011;34382;43.160;24.148;2023-04-25T05:02:02;8.00;;;3.73;;
48596;SDS011;34382;43.160;24.148;2023-04-25T05:03:34;9.23;;;3.58;;
48596;SDS011;34382;43.160;24.148;2023-04-25T05:05:07;10.15;;;3.65;;
48596;SDS011;34382;43.160;24.148;2023-04-25T05:06:39;9.13;;;3.78;;
48596;SDS011;34382;43.160;24.148;2023-04-25T05:08:12;5.90;;;2.80;;
48596;SDS011;34382;43.160;24.148;2023-04-25T05:09:44;8.65;;;3.60;;
48596;SDS011;34382;43.160;24.148;2023-04-25T05:11:16;9.55;;;3.55;;
48596;SDS011;34382;43.160;24.148;2023-04-25T05:12:48;12.43;;;4.50;;
48596;SDS011;34382;43.160;24.148;2023-04-25T05:14:20;7.10;;;3.17;;
48596;SDS011;34382;43.160;24.148;2023-04-25T05:15:54;8.35;;;3.50;;
48596;SDS011;34382;43.160;24.148;2023-04-25T05:17:26;7.93;;;3.10;;
48596;SDS011;34382;43.160;24.148;2023-04-25T05:18:58;6.05;;;2.72;;
48596;SDS011;34382;43.160;24.148;2023-04-25T05:20:30;9.35;;;3.10;;
48596;SDS011;34382;43.160;24.148;2023-04-25T05:22:03;6.13;;;2.58;;
48596;SDS011;34382;43.160;24.148;2023-04-25T05:23:35;5.47;;;2.60;;
48596;SDS011;34382;43.160;24.148;2023-04-25T05:25:08;7.65;;;3.17;;
48596;SDS011;34382;43.160;24.148;2023-04-25T05:26:41;6.68;;;3.00;;
48596;SDS011;34382;43.160;24.148;2023-04-25T05:28:13;11.27;;;3.63;;
48596;SDS011;34382;43.160;24.148;2023-04-25T05:29:45;8.32;;;3.42;;
48596;SDS011;34382;43.160;24.148;2023-04-25T05:31:17;6.78;;;3.25;;
48596;SDS011;34382;43.160;24.148;2023-04-25T05:32:49;7.32;;;2.90;;
48596;SDS011;34382;43.160;24.148;2023-04-25T05:34:22;6.47;;;3.00;;
48596;SDS011;34382;43.160;24.148;2023-04-25T05:35:54;6.75;;;3.05;;
48596;SDS011;34382;43.160;24.148;2023-04-25T05:37:26;13.60;;;4.30;;
48596;SDS011;34382;43.160;24.148;2023-04-25T05:38:58;8.43;;;3.60;;
48596;SDS011;34382;43.160;24.148;2023-04-25T05:40:30;6.10;;;2.83;;
48596;SDS011;34382;43.160;24.148;2023-04-25T05:42:02;11.95;;;3.78;;
48596;SDS011;34382;43.160;24.148;2023-04-25T05:43:37;8.55;;;3.45;;
48596;SDS011;34382;43.160;24.148;2023-04-25T05:45:10;8.15;;;3.28;;
48596;SDS011;34382;43.160;24.148;2023-04-25T05:46:42;8.80;;;3.20;;
48596;SDS011;34382;43.160;24.148;2023-04-25T05:48:14;9.32;;;3.35;;
48596;SDS011;34382;43.160;24.148;2023-04-25T05:49:46;17.65;;;5.82;;
48596;SDS011;34382;43.160;24.148;2023-04-25T05:51:21;5.93;;;2.90;;
48596;SDS011;34382;43.160;24.148;2023-04-25T05:52:53;7.88;;;2.97;;
48596;SDS011;34382;43.160;24.148;2023-04-25T05:54:25;6.53;;;2.97;;
48596;SDS011;34382;43.160;24.148;2023-04-25T05:55:58;6.15;;;3.10;;
48596;SDS011;34382;43.160;24.148;2023-04-25T05:57:30;6.88;;;3.03;;
48596;SDS011;34382;43.160;24.148;2023-04-25T05:59:02;6.37;;;3.00;;
48596;SDS011;34382;43.160;24.148;2023-04-25T06:00:35;8.18;;;3.60;;
48596;SDS011;34382;43.160;24.148;2023-04-25T06:02:07;9.30;;;3.30;;
48596;SDS011;34382;43.160;24.148;2023-04-25T06:03:42;6.93;;;3.22;;
48596;SDS011;34382;43.160;24.148;2023-04-25T06:05:15;7.28;;;3.28;;
48596;SDS011;34382;43.160;24.148;2023-04-25T06:06:48;6.55;;;3.30;;
48596;SDS011;34382;43.160;24.148;2023-04-25T06:08:20;6.82;;;3.03;;
48596;SDS011;34382;43.160;24.148;2023-04-25T06:09:52;10.75;;;3.40;;
48596;SDS011;34382;43.160;24.148;2023-04-25T06:11:25;6.80;;;3.67;;
48596;SDS011;34382;43.160;24.148;2023-04-25T06:12:57;7.82;;;3.45;;
48596;SDS011;34382;43.160;24.148;2023-04-25T06:14:29;8.70;;;3.80;;
48596;SDS011;34382;43.160;24.148;2023-04-25T06:16:02;7.43;;;3.83;;
48596;SDS011;34382;43.160;24.148;2023-04-25T06:17:34;7.78;;;4.25;;
48596;SDS011;34382;43.160;24.148;2023-04-25T06:19:06;6.78;;;3.60;;
48596;SDS011;34382;43.160;24.148;2023-04-25T06:20:39;7.65;;;3.75;;
48596;SDS011;34382;43.160;24.148;2023-04-25T06:22:11;9.68;;;3.92;;
48596;SDS011;34382;43.160;24.148;2023-04-25T06:23:46;7.75;;;4.03;;
48596;SDS011;34382;43.160;24.148;2023-04-25T06:25:18;7.43;;;4.15;;
48596;SDS011;34382;43.160;24.148;2023-04-25T06:26:50;8.20;;;4.45;;
48596;SDS011;34382;43.160;24.148;2023-04-25T06:28:22;11.13;;;4.72;;
48596;SDS011;34382;43.160;24.148;2023-04-25T06:31:27;9.63;;;5.07;;
48596;SDS011;34382;43.160;24.148;2023-04-25T06:33:00;9.85;;;4.90;;
48596;SDS011;34382;43.160;24.148;2023-04-25T06:34:33;9.60;;;5.25;;
48596;SDS011;34382;43.160;24.148;2023-04-25T06:36:05;8.02;;;4.60;;
48596;SDS011;34382;43.160;24.148;2023-04-25T06:37:37;13.25;;;5.07;;
48596;SDS011;34382;43.160;24.148;2023-04-25T06:39:09;8.68;;;5.43;;
48596;SDS011;34382;43.160;24.148;2023-04-25T06:40:42;8.90;;;5.25;;
48596;SDS011;34382;43.160;24.148;2023-04-25T06:42:16;9.00;;;5.65;;
48596;SDS011;34382;43.160;24.148;2023-04-25T06:43:49;11.05;;;5.60;;
48596;SDS011;34382;43.160;24.148;2023-04-25T06:45:21;12.00;;;5.95;;
48596;SDS011;34382;43.160;24.148;2023-04-25T06:46:53;9.98;;;5.50;;
48596;SDS011;34382;43.160;24.148;2023-04-25T06:48:26;14.02;;;6.22;;
48596;SDS011;34382;43.160;24.148;2023-04-25T06:51:30;9.60;;;5.20;;
48596;SDS011;34382;43.160;24.148;2023-04-25T06:53:03;8.00;;;4.82;;
48596;SDS011;34382;43.160;24.148;2023-04-25T06:54:35;9.13;;;4.03;;
48596;SDS011;34382;43.160;24.148;2023-04-25T06:56:07;7.68;;;4.10;;
48596;SDS011;34382;43.160;24.148;2023-04-25T06:57:39;8.55;;;4.32;;
48596;SDS011;34382;43.160;24.148;2023-04-25T06:59:11;9.15;;;4.70;;
48596;SDS011;34382;43.160;24.148;2023-04-25T07:00:44;9.55;;;4.63;;
48596;SDS011;34382;43.160;24.148;2023-04-25T07:02:16;7.82;;;4.25;;
48596;SDS011;34382;43.160;24.148;2023-04-25T07:03:48;7.60;;;4.20;;
48596;SDS011;34382;43.160;24.148;2023-04-25T07:05:21;8.07;;;3.88;;
48596;SDS011;34382;43.160;24.148;2023-04-25T07:06:53;7.57;;;4.07;;
48596;SDS011;34382;43.160;24.148;2023-04-25T07:08:26;7.38;;;3.92;;
48596;SDS011;34382;43.160;24.148;2023-04-25T07:09:58;7.95;;;4.10;;
48596;SDS011;34382;43.160;24.148;2023-04-25T07:11:30;7.28;;;3.67;;
48596;SDS011;34382;43.160;24.148;2023-04-25T07:13:03;7.82;;;4.05;;
48596;SDS011;34382;43.160;24.148;2023-04-25T07:14:35;7.78;;;4.72;;
48596;SDS011;34382;43.160;24.148;2023-04-25T07:16:07;8.05;;;3.83;;
48596;SDS011;34382;43.160;24.148;2023-04-25T07:17:39;8.02;;;3.50;;
48596;SDS011;34382;43.160;24.148;2023-04-25T07:19:12;8.73;;;3.70;;
48596;SDS011;34382;43.160;24.148;2023-04-25T07:20:44;6.00;;;2.90;;
48596;SDS011;34382;43.160;24.148;2023-04-25T07:22:16;6.85;;;2.83;;
48596;SDS011;34382;43.160;24.148;2023-04-25T07:23:48;6.38;;;3.05;;
48596;SDS011;34382;43.160;24.148;2023-04-25T07:25:20;6.57;;;2.85;;
48596;SDS011;34382;43.160;24.148;2023-04-25T07:26:52;8.35;;;3.60;;
48596;SDS011;34382;43.160;24.148;2023-04-25T07:28:25;6.35;;;2.88;;
48596;SDS011;34382;43.160;24.148;2023-04-25T07:29:57;5.75;;;2.53;;
48596;SDS011;34382;43.160;24.148;2023-04-25T07:31:29;6.25;;;2.70;;
48596;SDS011;34382;43.160;24.148;2023-04-25T07:33:01;6.22;;;2.63;;
48596;SDS011;34382;43.160;24.148;2023-04-25T07:34:34;4.57;;;2.27;;
48596;SDS011;34382;43.160;24.148;2023-04-25T07:36:08;6.20;;;2.75;;
48596;SDS011;34382;43.160;24.148;2023-04-25T07:37:41;5.50;;;2.50;;
48596;SDS011;34382;43.160;24.148;2023-04-25T07:39:13;6.03;;;2.72;;
48596;SDS011;34382;43.160;24.148;2023-04-25T07:40:45;4.22;;;2.05;;
48596;SDS011;34382;43.160;24.148;2023-04-25T07:42:17;5.50;;;2.30;;
48596;SDS011;34382;43.160;24.148;2023-04-25T07:43:49;4.82;;;2.08;;
48596;SDS011;34382;43.160;24.148;2023-04-25T07:45:21;4.28;;;1.98;;
48596;SDS011;34382;43.160;24.148;2023-04-25T07:46:53;5.45;;;2.25;;
48596;SDS011;34382;43.160;24.148;2023-04-25T07:48:26;5.03;;;2.30;;
48596;SDS011;34382;43.160;24.148;2023-04-25T07:49:58;4.95;;;2.50;;
48596;SDS011;34382;43.160;24.148;2023-04-25T07:51:30;7.28;;;3.08;;
48596;SDS011;34382;43.160;24.148;2023-04-25T07:53:03;6.03;;;2.90;;
48596;SDS011;34382;43.160;24.148;2023-04-25T07:54:35;6.10;;;2.83;;
48596;SDS011;34382;43.160;24.148;2023-04-25T07:56:07;6.90;;;2.90;;
48596;SDS011;34382;43.160;24.148;2023-04-25T07:57:40;6.05;;;2.85;;
48596;SDS011;34382;43.160;24.148;2023-04-25T07:59:12;7.78;;;3.10;;
48596;SDS011;34382;43.160;24.148;2023-04-25T08:00:45;7.93;;;3.50;;
48596;SDS011;34382;43.160;24.148;2023-04-25T08:02:17;7.10;;;2.95;;
48596;SDS011;34382;43.160;24.148;2023-04-25T08:03:49;6.85;;;2.83;;
48596;SDS011;34382;43.160;24.148;2023-04-25T08:05:21;8.23;;;3.30;;
48596;SDS011;34382;43.160;24.148;2023-04-25T08:06:54;7.57;;;3.28;;
48596;SDS011;34382;43.160;24.148;2023-04-25T08:08:26;6.63;;;3.20;;
48596;SDS011;34382;43.160;24.148;2023-04-25T08:09:58;7.63;;;3.72;;
48596;SDS011;34382;43.160;24.148;2023-04-25T08:11:30;6.95;;;3.60;;
48596;SDS011;34382;43.160;24.148;2023-04-25T08:13:03;7.30;;;3.47;;
48596;SDS011;34382;43.160;24.148;2023-04-25T08:14:35;7.78;;;3.60;;
48596;SDS011;34382;43.160;24.148;2023-04-25T08:16:08;6.97;;;3.50;;
48596;SDS011;34382;43.160;24.148;2023-04-25T08:17:41;6.30;;;3.08;;
48596;SDS011;34382;43.160;24.148;2023-04-25T08:19:13;7.00;;;3.10;;
48596;SDS011;34382;43.160;24.148;2023-04-25T08:20:45;9.25;;;3.30;;
48596;SDS011;34382;43.160;24.148;2023-04-25T08:22:17;8.48;;;3.13;;
48596;SDS011;34382;43.160;24.148;2023-04-25T08:23:49;6.18;;;3.13;;
48596;SDS011;34382;43.160;24.148;2023-04-25T08:25:21;6.30;;;3.00;;
48596;SDS011;34382;43.160;24.148;2023-04-25T08:26:54;5.82;;;3.17;;
48596;SDS011;34382;43.160;24.148;2023-04-25T08:28:27;11.27;;;3.85;;
48596;SDS011;34382;43.160;24.148;2023-04-25T08:29:59;6.57;;;3.00;;
48596;SDS011;34382;43.160;24.148;2023-04-25T08:31:31;6.38;;;2.83;;
48596;SDS011;34382;43.160;24.148;2023-04-25T08:33:04;9.88;;;4.00;;
48596;SDS011;34382;43.160;24.148;2023-04-25T08:34:36;5.17;;;2.67;;
48596;SDS011;34382;43.160;24.148;2023-04-25T08:36:10;7.05;;;3.10;;
48596;SDS011;34382;43.160;24.148;2023-04-25T08:37:42;8.73;;;2.85;;
48596;SDS011;34382;43.160;24.148;2023-04-25T08:39:14;6.70;;;2.70;;
48596;SDS011;34382;43.160;24.148;2023-04-25T08:40:49;7.75;;;3.10;;
48596;SDS011;34382;43.160;24.148;2023-04-25T08:42:23;9.52;;;3.22;;
48596;SDS011;34382;43.160;24.148;2023-04-25T08:45:32;13.45;;;4.72;;
48596;SDS011;34382;43.160;24.148;2023-04-25T08:47:05;6.85;;;2.60;;
48596;SDS011;34382;43.160;24.148;2023-04-25T08:48:37;5.22;;;2.33;;
48596;SDS011;34382;43.160;24.148;2023-04-25T08:50:12;7.85;;;2.90;;
48596;SDS011;34382;43.160;24.148;2023-04-25T08:51:45;6.32;;;2.50;;
48596;SDS011;34382;43.160;24.148;2023-04-25T08:53:25;8.00;;;2.50;;
48596;SDS011;34382;43.160;24.148;2023-04-25T08:54:59;4.72;;;2.20;;
48596;SDS011;34382;43.160;24.148;2023-04-25T08:56:32;5.68;;;2.30;;
48596;SDS011;34382;43.160;24.148;2023-04-25T08:58:06;5.38;;;2.25;;
48596;SDS011;34382;43.160;24.148;2023-04-25T08:59:39;4.60;;;2.33;;
48596;SDS011;34382;43.160;24.148;2023-04-25T09:01:15;4.47;;;2.00;;
48596;SDS011;34382;43.160;24.148;2023-04-25T09:04:21;4.80;;;2.30;;
48596;SDS011;34382;43.160;24.148;2023-04-25T09:05:53;4.87;;;2.30;;
48596;SDS011;34382;43.160;24.148;2023-04-25T09:07:25;5.85;;;2.83;;
48596;SDS011;34382;43.160;24.148;2023-04-25T09:09:01;6.43;;;2.55;;
48596;SDS011;34382;43.160;24.148;2023-04-25T09:10:37;5.68;;;2.70;;
48596;SDS011;34382;43.160;24.148;2023-04-25T09:12:10;4.70;;;2.30;;
48596;SDS011;34382;43.160;24.148;2023-04-25T09:13:42;6.63;;;2.58;;
48596;SDS011;34382;43.160;24.148;2023-04-25T09:15:17;5.68;;;2.25;;
48596;SDS011;34382;43.160;24.148;2023-04-25T09:18:33;7.05;;;2.70;;